sensor_id;sensor_type;location;lat;lon;timestamp;temperature;humidity
68681;DHT22;55836;49.858;6.756;2023-09-19T00:00:23;17.50;99.90
68681;DHT22;55836;49.858;6.756;2023-09-19T00:02:58;17.40;99.90
68681;DHT22;55836;49.858;6.756;2023-09-19T00:05:28;17.30;99.90
68681;DHT22;55836;49.858;6.756;2023-09-19T00:07:56;17.30;99.90
68681;DHT22;55836;49.858;6.756;2023-09-19T00:10:28;17.30;99.90
68681;DHT22;55836;49.858;6.756;2023-09-19T00:12:58;17.20;99.90
68681;DHT22;55836;49.858;6.756;2023-09-19T00:15:31;17.00;99.90
68681;DHT22;55836;49.858;6.756;2023-09-19T00:17:58;17.10;99.90
68681;DHT22;55836;49.858;6.756;2023-09-19T00:20:24;16.90;99.90
68681;DHT22;55836;49.858;6.756;2023-09-19T00:22:50;16.80;99.90
68681;DHT22;55836;49.858;6.756;2023-09-19T00:25:20;16.80;99.90
68681;DHT22;55836;49.858;6.756;2023-09-19T00:27:46;16.90;99.90
68681;DHT22;55836;49.858;6.756;2023-09-19T00:30:13;16.90;99.90
68681;DHT22;55836;49.858;6.756;2023-09-19T00:32:45;16.90;99.90
68681;DHT22;55836;49.858;6.756;2023-09-19T00:35:13;16.90;99.90
68681;DHT22;55836;49.858;6.756;2023-09-19T00:37:40;17.00;99.90
68681;DHT22;55836;49.858;6.756;2023-09-19T00:40:10;17.00;99.90
68681;DHT22;55836;49.858;6.756;2023-09-19T00:42:47;17.00;99.90
68681;DHT22;55836;49.858;6.756;2023-09-19T00:45:14;17.00;99.90
68681;DHT22;55836;49.858;6.756;2023-09-19T00:47:45;16.90;99.90
68681;DHT22;55836;49.858;6.756;2023-09-19T00:50:12;16.80;99.90
68681;DHT22;55836;49.858;6.756;2023-09-19T00:52:40;16.70;99.90
68681;DHT22;55836;49.858;6.756;2023-09-19T00:55:08;16.80;99.90
68681;DHT22;55836;49.858;6.756;2023-09-19T00:57:35;16.70;99.90
68681;DHT22;55836;49.858;6.756;2023-09-19T01:00:02;16.60;99.90
68681;DHT22;55836;49.858;6.756;2023-09-19T01:02:35;16.60;99.90
68681;DHT22;55836;49.858;6.756;2023-09-19T01:05:01;16.50;99.90
68681;DHT22;55836;49.858;6.756;2023-09-19T01:07:29;16.60;99.90
68681;DHT22;55836;49.858;6.756;2023-09-19T01:09:59;16.60;99.90
68681;DHT22;55836;49.858;6.756;2023-09-19T01:12:55;16.50;99.90
68681;DHT22;55836;49.858;6.756;2023-09-19T01:18:16;16.40;99.90
68681;DHT22;55836;49.858;6.756;2023-09-19T01:29:39;16.40;99.90
68681;DHT22;55836;49.858;6.756;2023-09-19T01:32:08;16.50;99.90
68681;DHT22;55836;49.858;6.756;2023-09-19T01:35:04;16.50;99.90
68681;DHT22;55836;49.858;6.756;2023-09-19T01:37:30;16.50;99.90
68681;DHT22;55836;49.858;6.756;2023-09-19T01:40:03;16.50;99.90
68681;DHT22;55836;49.858;6.756;2023-09-19T01:42:51;16.40;99.90
68681;DHT22;55836;49.858;6.756;2023-09-19T01:45:37;16.30;99.90
68681;DHT22;55836;49.858;6.756;2023-09-19T01:48:25;16.30;99.90
68681;DHT22;55836;49.858;6.756;2023-09-19T01:51:02;16.40;99.90
68681;DHT22;55836;49.858;6.756;2023-09-19T01:53:50;16.30;99.90
68681;DHT22;55836;49.858;6.756;2023-09-19T01:56:25;16.20;99.90
68681;DHT22;55836;49.858;6.756;2023-09-19T01:58:56;16.30;99.90
68681;DHT22;55836;49.858;6.756;2023-09-19T02:01:25;16.30;99.90
68681;DHT22;55836;49.858;6.756;2023-09-19T02:03:52;16.40;99.90
68681;DHT22;55836;49.858;6.756;2023-09-19T02:06:18;16.40;99.90
68681;DHT22;55836;49.858;6.756;2023-09-19T02:08:45;16.40;99.90
68681;DHT22;55836;49.858;6.756;2023-09-19T02:11:11;16.40;99.90
68681;DHT22;55836;49.858;6.756;2023-09-19T02:13:38;16.40;99.90
68681;DHT22;55836;49.858;6.756;2023-09-19T02:16:04;16.40;99.90
68681;DHT22;55836;49.858;6.756;2023-09-19T02:18:30;16.40;99.90
68681;DHT22;55836;49.858;6.756;2023-09-19T02:20:56;16.50;99.90
68681;DHT22;55836;49.858;6.756;2023-09-19T02:23:24;16.50;99.90
68681;DHT22;55836;49.858;6.756;2023-09-19T02:25:53;16.60;99.90
68681;DHT22;55836;49.858;6.756;2023-09-19T02:28:19;16.60;99.90
68681;DHT22;55836;49.858;6.756;2023-09-19T02:30:48;16.60;99.90
68681;DHT22;55836;49.858;6.756;2023-09-19T02:33:14;16.60;99.90
68681;DHT22;55836;49.858;6.756;2023-09-19T02:35:40;16.60;99.90
68681;DHT22;55836;49.858;6.756;2023-09-19T02:38:06;16.60;99.90
68681;DHT22;55836;49.858;6.756;2023-09-19T02:40:33;16.60;99.90
68681;DHT22;55836;49.858;6.756;2023-09-19T02:43:01;16.60;99.90
68681;DHT22;55836;49.858;6.756;2023-09-19T02:45:27;16.50;99.90
68681;DHT22;55836;49.858;6.756;2023-09-19T02:47:53;16.60;99.90
68681;DHT22;55836;49.858;6.756;2023-09-19T02:50:20;16.60;99.90
68681;DHT22;55836;49.858;6.756;2023-09-19T02:52:46;16.50;99.90
68681;DHT22;55836;49.858;6.756;2023-09-19T02:55:16;16.50;99.90
68681;DHT22;55836;49.858;6.756;2023-09-19T02:57:52;16.50;99.90
68681;DHT22;55836;49.858;6.756;2023-09-19T03:00:20;16.50;99.90
68681;DHT22;55836;49.858;6.756;2023-09-19T03:02:49;16.50;99.90
68681;DHT22;55836;49.858;6.756;2023-09-19T03:05:16;16.50;99.90
68681;DHT22;55836;49.858;6.756;2023-09-19T03:07:41;16.50;99.90
68681;DHT22;55836;49.858;6.756;2023-09-19T03:10:09;16.40;99.90
68681;DHT22;55836;49.858;6.756;2023-09-19T03:12:35;16.40;99.90
68681;DHT22;55836;49.858;6.756;2023-09-19T03:15:01;16.30;99.90
68681;DHT22;55836;49.858;6.756;2023-09-19T03:17:27;16.40;99.90
68681;DHT22;55836;49.858;6.756;2023-09-19T03:19:52;16.30;99.90
68681;DHT22;55836;49.858;6.756;2023-09-19T03:22:19;16.30;99.90
68681;DHT22;55836;49.858;6.756;2023-09-19T03:24:45;16.30;99.90
68681;DHT22;55836;49.858;6.756;2023-09-19T03:27:12;16.30;99.90
68681;DHT22;55836;49.858;6.756;2023-09-19T03:29:39;16.40;99.90
68681;DHT22;55836;49.858;6.756;2023-09-19T03:32:05;16.30;99.90
68681;DHT22;55836;49.858;6.756;2023-09-19T03:34:31;16.30;99.90
68681;DHT22;55836;49.858;6.756;2023-09-19T03:36:59;16.20;99.90
68681;DHT22;55836;49.858;6.756;2023-09-19T03:39:25;16.10;99.90
68681;DHT22;55836;49.858;6.756;2023-09-19T03:41:51;16.10;99.90
68681;DHT22;55836;49.858;6.756;2023-09-19T03:44:16;16.00;99.90
68681;DHT22;55836;49.858;6.756;2023-09-19T03:46:42;16.00;99.90
68681;DHT22;55836;49.858;6.756;2023-09-19T03:49:07;15.90;99.90
68681;DHT22;55836;49.858;6.756;2023-09-19T03:51:34;15.90;99.90
68681;DHT22;55836;49.858;6.756;2023-09-19T03:54:00;15.90;99.90
68681;DHT22;55836;49.858;6.756;2023-09-19T03:56:25;15.90;99.90
68681;DHT22;55836;49.858;6.756;2023-09-19T03:58:51;15.90;99.90
68681;DHT22;55836;49.858;6.756;2023-09-19T04:01:16;15.80;99.90
68681;DHT22;55836;49.858;6.756;2023-09-19T04:03:44;15.90;99.90
68681;DHT22;55836;49.858;6.756;2023-09-19T04:06:17;16.00;99.90
68681;DHT22;55836;49.858;6.756;2023-09-19T04:08:43;16.00;99.90
68681;DHT22;55836;49.858;6.756;2023-09-19T04:11:10;15.90;99.90
68681;DHT22;55836;49.858;6.756;2023-09-19T04:13:35;15.90;99.90
68681;DHT22;55836;49.858;6.756;2023-09-19T04:16:02;15.90;99.90
68681;DHT22;55836;49.858;6.756;2023-09-19T04:18:29;15.80;99.90
68681;DHT22;55836;49.858;6.756;2023-09-19T04:20:58;15.80;99.90
68681;DHT22;55836;49.858;6.756;2023-09-19T04:23:23;15.80;99.90
68681;DHT22;55836;49.858;6.756;2023-09-19T04:25:49;15.80;99.90
68681;DHT22;55836;49.858;6.756;2023-09-19T04:28:16;15.80;99.90
68681;DHT22;55836;49.858;6.756;2023-09-19T04:30:41;15.70;99.90
68681;DHT22;55836;49.858;6.756;2023-09-19T04:33:08;15.70;99.90
68681;DHT22;55836;49.858;6.756;2023-09-19T04:35:34;15.70;99.90
68681;DHT22;55836;49.858;6.756;2023-09-19T04:38:00;15.70;99.90
68681;DHT22;55836;49.858;6.756;2023-09-19T04:40:26;15.60;99.90
68681;DHT22;55836;49.858;6.756;2023-09-19T04:42:55;15.70;99.90
68681;DHT22;55836;49.858;6.756;2023-09-19T04:45:27;15.60;99.90
68681;DHT22;55836;49.858;6.756;2023-09-19T04:47:54;15.60;99.90
68681;DHT22;55836;49.858;6.756;2023-09-19T04:50:20;15.50;99.90
68681;DHT22;55836;49.858;6.756;2023-09-19T04:52:49;15.40;99.90
68681;DHT22;55836;49.858;6.756;2023-09-19T04:55:17;15.40;99.90
68681;DHT22;55836;49.858;6.756;2023-09-19T04:57:47;15.40;99.90
68681;DHT22;55836;49.858;6.756;2023-09-19T05:00:14;15.40;99.90
68681;DHT22;55836;49.858;6.756;2023-09-19T05:02:43;15.30;99.90
68681;DHT22;55836;49.858;6.756;2023-09-19T05:05:09;15.30;99.90
68681;DHT22;55836;49.858;6.756;2023-09-19T05:07:42;15.30;99.90
68681;DHT22;55836;49.858;6.756;2023-09-19T05:10:09;15.20;99.90
68681;DHT22;55836;49.858;6.756;2023-09-19T05:12:35;15.20;99.90
68681;DHT22;55836;49.858;6.756;2023-09-19T05:15:08;15.20;99.90
68681;DHT22;55836;49.858;6.756;2023-09-19T05:17:34;15.10;99.90
68681;DHT22;55836;49.858;6.756;2023-09-19T05:20:01;15.10;99.90
68681;DHT22;55836;49.858;6.756;2023-09-19T05:22:40;15.10;99.90
68681;DHT22;55836;49.858;6.756;2023-09-19T05:25:06;15.10;99.90
68681;DHT22;55836;49.858;6.756;2023-09-19T05:27:32;15.20;99.90
68681;DHT22;55836;49.858;6.756;2023-09-19T05:29:59;15.20;99.90
68681;DHT22;55836;49.858;6.756;2023-09-19T05:32:25;15.20;99.90
68681;DHT22;55836;49.858;6.756;2023-09-19T05:34:51;15.20;99.90
68681;DHT22;55836;49.858;6.756;2023-09-19T05:37:22;15.10;99.90
68681;DHT22;55836;49.858;6.756;2023-09-19T05:39:48;15.30;99.90
68681;DHT22;55836;49.858;6.756;2023-09-19T05:42:14;15.20;99.90
68681;DHT22;55836;49.858;6.756;2023-09-19T05:44:40;15.20;99.90
68681;DHT22;55836;49.858;6.756;2023-09-19T05:47:05;15.20;99.90
68681;DHT22;55836;49.858;6.756;2023-09-19T05:49:37;15.10;99.90
68681;DHT22;55836;49.858;6.756;2023-09-19T05:52:06;15.20;99.90
68681;DHT22;55836;49.858;6.756;2023-09-19T05:54:32;15.10;99.90
68681;DHT22;55836;49.858;6.756;2023-09-19T05:57:00;15.10;99.90
68681;DHT22;55836;49.858;6.756;2023-09-19T05:59:25;15.00;99.90
68681;DHT22;55836;49.858;6.756;2023-09-19T06:01:51;15.00;99.90
68681;DHT22;55836;49.858;6.756;2023-09-19T06:04:17;15.10;99.90
68681;DHT22;55836;49.858;6.756;2023-09-19T06:06:45;15.10;99.90
68681;DHT22;55836;49.858;6.756;2023-09-19T06:09:10;15.10;99.90
68681;DHT22;55836;49.858;6.756;2023-09-19T06:11:36;15.10;99.90
68681;DHT22;55836;49.858;6.756;2023-09-19T06:14:02;15.20;99.90
68681;DHT22;55836;49.858;6.756;2023-09-19T06:16:29;15.20;99.90
68681;DHT22;55836;49.858;6.756;2023-09-19T06:18:55;15.10;99.90
68681;DHT22;55836;49.858;6.756;2023-09-19T06:21:22;15.20;99.90
68681;DHT22;55836;49.858;6.756;2023-09-19T06:23:48;15.20;99.90
68681;DHT22;55836;49.858;6.756;2023-09-19T06:26:13;15.10;99.90
68681;DHT22;55836;49.858;6.756;2023-09-19T06:28:40;15.00;99.90
68681;DHT22;55836;49.858;6.756;2023-09-19T06:31:06;15.10;99.90
68681;DHT22;55836;49.858;6.756;2023-09-19T06:33:35;15.20;99.90
68681;DHT22;55836;49.858;6.756;2023-09-19T06:36:04;15.20;99.90
68681;DHT22;55836;49.858;6.756;2023-09-19T06:38:30;15.40;99.90
68681;DHT22;55836;49.858;6.756;2023-09-19T06:40:58;15.30;99.90
68681;DHT22;55836;49.858;6.756;2023-09-19T06:43:24;15.30;99.90
68681;DHT22;55836;49.858;6.756;2023-09-19T06:45:49;15.30;99.90
68681;DHT22;55836;49.858;6.756;2023-09-19T06:48:17;15.30;99.90
68681;DHT22;55836;49.858;6.756;2023-09-19T06:50:42;15.30;99.90
68681;DHT22;55836;49.858;6.756;2023-09-19T06:53:09;15.30;99.90
68681;DHT22;55836;49.858;6.756;2023-09-19T06:55:35;15.50;99.90
68681;DHT22;55836;49.858;6.756;2023-09-19T06:58:02;15.40;99.90
68681;DHT22;55836;49.858;6.756;2023-09-19T07:00:31;15.60;99.90
68681;DHT22;55836;49.858;6.756;2023-09-19T07:03:03;15.60;99.90
68681;DHT22;55836;49.858;6.756;2023-09-19T07:05:30;15.70;99.90
68681;DHT22;55836;49.858;6.756;2023-09-19T07:07:57;15.70;99.90
68681;DHT22;55836;49.858;6.756;2023-09-19T07:10:26;15.70;99.90
68681;DHT22;55836;49.858;6.756;2023-09-19T07:12:59;15.70;99.90
68681;DHT22;55836;49.858;6.756;2023-09-19T07:15:25;15.80;99.90
68681;DHT22;55836;49.858;6.756;2023-09-19T07:17:55;15.90;99.90
68681;DHT22;55836;49.858;6.756;2023-09-19T07:20:22;15.80;99.90
68681;DHT22;55836;49.858;6.756;2023-09-19T07:22:49;16.00;99.90
68681;DHT22;55836;49.858;6.756;2023-09-19T07:25:16;15.80;99.90
68681;DHT22;55836;49.858;6.756;2023-09-19T07:27:42;15.80;99.90
68681;DHT22;55836;49.858;6.756;2023-09-19T07:30:08;16.00;99.90
68681;DHT22;55836;49.858;6.756;2023-09-19T07:32:34;16.10;99.90
68681;DHT22;55836;49.858;6.756;2023-09-19T07:35:04;15.90;99.90
68681;DHT22;55836;49.858;6.756;2023-09-19T07:37:31;16.00;99.90
68681;DHT22;55836;49.858;6.756;2023-09-19T07:39:59;15.90;99.90
68681;DHT22;55836;49.858;6.756;2023-09-19T07:42:29;16.00;99.90
68681;DHT22;55836;49.858;6.756;2023-09-19T07:44:54;16.20;99.90
68681;DHT22;55836;49.858;6.756;2023-09-19T07:47:20;16.20;99.90
68681;DHT22;55836;49.858;6.756;2023-09-19T07:49:49;16.10;99.90
68681;DHT22;55836;49.858;6.756;2023-09-19T07:52:15;16.20;99.90
68681;DHT22;55836;49.858;6.756;2023-09-19T07:54:41;16.50;99.90
68681;DHT22;55836;49.858;6.756;2023-09-19T07:57:09;16.40;99.90
68681;DHT22;55836;49.858;6.756;2023-09-19T07:59:35;16.50;99.90
68681;DHT22;55836;49.858;6.756;2023-09-19T08:02:01;16.60;99.90
68681;DHT22;55836;49.858;6.756;2023-09-19T08:04:30;16.50;99.90
68681;DHT22;55836;49.858;6.756;2023-09-19T08:06:59;16.40;99.90
68681;DHT22;55836;49.858;6.756;2023-09-19T08:09:26;16.60;99.90
68681;DHT22;55836;49.858;6.756;2023-09-19T08:11:51;16.70;99.90
68681;DHT22;55836;49.858;6.756;2023-09-19T08:14:17;16.70;99.90
68681;DHT22;55836;49.858;6.756;2023-09-19T08:16:43;16.80;99.90
68681;DHT22;55836;49.858;6.756;2023-09-19T08:19:10;16.80;99.90
68681;DHT22;55836;49.858;6.756;2023-09-19T08:21:36;16.50;99.90
68681;DHT22;55836;49.858;6.756;2023-09-19T08:24:02;16.50;99.90
68681;DHT22;55836;49.858;6.756;2023-09-19T08:26:30;16.90;99.90
68681;DHT22;55836;49.858;6.756;2023-09-19T08:28:56;16.90;99.90
68681;DHT22;55836;49.858;6.756;2023-09-19T08:31:22;17.10;99.90
68681;DHT22;55836;49.858;6.756;2023-09-19T08:33:49;17.20;99.90
68681;DHT22;55836;49.858;6.756;2023-09-19T08:36:16;17.20;99.90
68681;DHT22;55836;49.858;6.756;2023-09-19T08:38:42;17.00;99.90
68681;DHT22;55836;49.858;6.756;2023-09-19T08:41:08;16.70;99.90
68681;DHT22;55836;49.858;6.756;2023-09-19T08:43:35;17.00;99.90
68681;DHT22;55836;49.858;6.756;2023-09-19T08:46:11;16.90;99.90
68681;DHT22;55836;49.858;6.756;2023-09-19T08:48:54;16.60;99.90
68681;DHT22;55836;49.858;6.756;2023-09-19T08:51:43;16.50;99.90
68681;DHT22;55836;49.858;6.756;2023-09-19T08:54:24;17.00;99.90
68681;DHT22;55836;49.858;6.756;2023-09-19T08:56:53;17.30;99.90
68681;DHT22;55836;49.858;6.756;2023-09-19T08:59:22;17.20;99.90
68681;DHT22;55836;49.858;6.756;2023-09-19T09:01:51;17.30;99.90
68681;DHT22;55836;49.858;6.756;2023-09-19T09:04:19;17.40;99.90
68681;DHT22;55836;49.858;6.756;2023-09-19T09:06:46;17.30;99.90
68681;DHT22;55836;49.858;6.756;2023-09-19T09:09:17;17.50;99.90
68681;DHT22;55836;49.858;6.756;2023-09-19T09:11:42;17.70;99.90
68681;DHT22;55836;49.858;6.756;2023-09-19T09:14:08;17.60;99.90
68681;DHT22;55836;49.858;6.756;2023-09-19T09:16:34;17.30;99.90
68681;DHT22;55836;49.858;6.756;2023-09-19T09:19:00;17.40;99.90
68681;DHT22;55836;49.858;6.756;2023-09-19T09:21:26;17.30;99.90
68681;DHT22;55836;49.858;6.756;2023-09-19T09:23:54;17.20;99.90
68681;DHT22;55836;49.858;6.756;2023-09-19T09:29:04;17.20;99.90
68681;DHT22;55836;49.858;6.756;2023-09-19T09:31:29;17.20;99.90
68681;DHT22;55836;49.858;6.756;2023-09-19T09:33:56;17.00;99.90
68681;DHT22;55836;49.858;6.756;2023-09-19T09:36:39;17.00;99.90
68681;DHT22;55836;49.858;6.756;2023-09-19T09:39:07;17.30;99.90
68681;DHT22;55836;49.858;6.756;2023-09-19T09:41:43;17.40;99.90
68681;DHT22;55836;49.858;6.756;2023-09-19T09:44:18;17.20;99.90
68681;DHT22;55836;49.858;6.756;2023-09-19T09:46:45;17.30;99.90
68681;DHT22;55836;49.858;6.756;2023-09-19T09:49:27;17.30;99.90
68681;DHT22;55836;49.858;6.756;2023-09-19T09:52:06;17.30;99.90
68681;DHT22;55836;49.858;6.756;2023-09-19T09:54:34;17.90;99.90
68681;DHT22;55836;49.858;6.756;2023-09-19T09:57:10;17.40;99.90
68681;DHT22;55836;49.858;6.756;2023-09-19T09:59:53;17.80;99.90
68681;DHT22;55836;49.858;6.756;2023-09-19T10:02:26;17.80;99.90
68681;DHT22;55836;49.858;6.756;2023-09-19T10:04:56;17.40;99.90
68681;DHT22;55836;49.858;6.756;2023-09-19T10:07:44;17.50;99.90
68681;DHT22;55836;49.858;6.756;2023-09-19T10:10:35;17.60;99.90
68681;DHT22;55836;49.858;6.756;2023-09-19T10:13:08;17.40;99.90
68681;DHT22;55836;49.858;6.756;2023-09-19T10:15:37;17.60;99.90
68681;DHT22;55836;49.858;6.756;2023-09-19T10:18:06;17.10;99.90
68681;DHT22;55836;49.858;6.756;2023-09-19T10:20:36;17.40;99.90
68681;DHT22;55836;49.858;6.756;2023-09-19T10:23:08;17.40;99.90
68681;DHT22;55836;49.858;6.756;2023-09-19T10:25:42;17.60;99.90
68681;DHT22;55836;49.858;6.756;2023-09-19T10:28:09;17.20;99.90
68681;DHT22;55836;49.858;6.756;2023-09-19T10:30:45;17.40;99.90
68681;DHT22;55836;49.858;6.756;2023-09-19T10:33:13;17.30;99.90
68681;DHT22;55836;49.858;6.756;2023-09-19T10:35:43;17.40;99.90
68681;DHT22;55836;49.858;6.756;2023-09-19T10:38:13;17.40;99.90
68681;DHT22;55836;49.858;6.756;2023-09-19T10:40:40;17.70;99.90
68681;DHT22;55836;49.858;6.756;2023-09-19T10:43:12;18.00;99.90
68681;DHT22;55836;49.858;6.756;2023-09-19T10:45:38;18.30;99.90
68681;DHT22;55836;49.858;6.756;2023-09-19T10:48:06;18.50;99.90
68681;DHT22;55836;49.858;6.756;2023-09-19T10:51:22;17.90;99.90
68681;DHT22;55836;49.858;6.756;2023-09-19T10:53:25;18.00;99.90
68681;DHT22;55836;49.858;6.756;2023-09-19T10:55:55;17.80;99.90
68681;DHT22;55836;49.858;6.756;2023-09-19T10:58:27;17.90;99.90
68681;DHT22;55836;49.858;6.756;2023-09-19T11:00:58;18.00;99.90
68681;DHT22;55836;49.858;6.756;2023-09-19T11:03:37;17.70;99.90
68681;DHT22;55836;49.858;6.756;2023-09-19T11:08:54;17.70;99.90
68681;DHT22;55836;49.858;6.756;2023-09-19T11:17:35;17.70;99.90
68681;DHT22;55836;49.858;6.756;2023-09-19T11:30:38;19.10;99.90
68681;DHT22;55836;49.858;6.756;2023-09-19T11:49:13;19.00;99.80
68681;DHT22;55836;49.858;6.756;2023-09-19T11:51:45;18.90;98.00
68681;DHT22;55836;49.858;6.756;2023-09-19T11:54:14;19.10;97.40
68681;DHT22;55836;49.858;6.756;2023-09-19T11:56:44;19.20;99.20
68681;DHT22;55836;49.858;6.756;2023-09-19T11:59:11;19.50;97.40
68681;DHT22;55836;49.858;6.756;2023-09-19T12:01:38;19.30;99.10
68681;DHT22;55836;49.858;6.756;2023-09-19T12:04:11;19.20;97.90
68681;DHT22;55836;49.858;6.756;2023-09-19T12:06:37;19.00;97.60
68681;DHT22;55836;49.858;6.756;2023-09-19T12:09:12;19.30;97.80
68681;DHT22;55836;49.858;6.756;2023-09-19T12:11:42;19.60;97.10
68681;DHT22;55836;49.858;6.756;2023-09-19T12:14:09;19.40;94.70
68681;DHT22;55836;49.858;6.756;2023-09-19T12:16:35;19.40;93.80
68681;DHT22;55836;49.858;6.756;2023-09-19T12:19:18;19.40;95.80
68681;DHT22;55836;49.858;6.756;2023-09-19T12:22:01;19.50;96.20
68681;DHT22;55836;49.858;6.756;2023-09-19T12:24:30;19.50;93.70
68681;DHT22;55836;49.858;6.756;2023-09-19T12:27:04;19.50;93.00
68681;DHT22;55836;49.858;6.756;2023-09-19T12:29:31;19.50;95.40
68681;DHT22;55836;49.858;6.756;2023-09-19T12:31:58;19.60;93.40
68681;DHT22;55836;49.858;6.756;2023-09-19T12:34:28;19.80;92.30
68681;DHT22;55836;49.858;6.756;2023-09-19T12:37:07;19.70;92.70
68681;DHT22;55836;49.858;6.756;2023-09-19T12:40:08;19.60;92.80
68681;DHT22;55836;49.858;6.756;2023-09-19T12:42:43;19.70;94.00
68681;DHT22;55836;49.858;6.756;2023-09-19T12:45:11;19.50;92.80
68681;DHT22;55836;49.858;6.756;2023-09-19T12:47:39;19.40;92.50
68681;DHT22;55836;49.858;6.756;2023-09-19T12:52:45;19.80;91.50
68681;DHT22;55836;49.858;6.756;2023-09-19T12:55:29;20.10;93.00
68681;DHT22;55836;49.858;6.756;2023-09-19T13:00:37;20.20;90.00
68681;DHT22;55836;49.858;6.756;2023-09-19T13:03:16;20.20;90.20
68681;DHT22;55836;49.858;6.756;2023-09-19T13:05:49;20.50;89.40
68681;DHT22;55836;49.858;6.756;2023-09-19T13:08:28;20.60;87.80
68681;DHT22;55836;49.858;6.756;2023-09-19T13:11:17;20.40;87.30
68681;DHT22;55836;49.858;6.756;2023-09-19T13:13:45;20.30;86.30
68681;DHT22;55836;49.858;6.756;2023-09-19T13:16:13;20.20;86.10
68681;DHT22;55836;49.858;6.756;2023-09-19T13:18:51;20.50;86.90
68681;DHT22;55836;49.858;6.756;2023-09-19T13:21:28;20.20;85.70
68681;DHT22;55836;49.858;6.756;2023-09-19T13:23:56;19.80;85.40
68681;DHT22;55836;49.858;6.756;2023-09-19T13:26:41;19.90;87.90
68681;DHT22;55836;49.858;6.756;2023-09-19T13:29:06;19.70;86.50
68681;DHT22;55836;49.858;6.756;2023-09-19T13:31:32;19.50;89.00
68681;DHT22;55836;49.858;6.756;2023-09-19T13:33:57;19.70;89.60
68681;DHT22;55836;49.858;6.756;2023-09-19T13:36:23;19.70;87.90
68681;DHT22;55836;49.858;6.756;2023-09-19T13:38:48;20.00;87.90
68681;DHT22;55836;49.858;6.756;2023-09-19T13:41:15;20.30;85.80
68681;DHT22;55836;49.858;6.756;2023-09-19T13:43:40;20.20;86.80
68681;DHT22;55836;49.858;6.756;2023-09-19T13:46:06;20.30;87.90
68681;DHT22;55836;49.858;6.756;2023-09-19T13:48:37;20.20;87.40
68681;DHT22;55836;49.858;6.756;2023-09-19T13:51:04;20.00;86.70
68681;DHT22;55836;49.858;6.756;2023-09-19T13:53:30;20.10;85.50
68681;DHT22;55836;49.858;6.756;2023-09-19T13:55:55;20.20;89.40
68681;DHT22;55836;49.858;6.756;2023-09-19T13:58:21;20.10;90.00
68681;DHT22;55836;49.858;6.756;2023-09-19T14:00:48;20.40;90.10
68681;DHT22;55836;49.858;6.756;2023-09-19T14:03:14;20.50;87.40
68681;DHT22;55836;49.858;6.756;2023-09-19T14:05:40;20.20;87.60
68681;DHT22;55836;49.858;6.756;2023-09-19T14:08:05;20.20;86.40
68681;DHT22;55836;49.858;6.756;2023-09-19T14:10:31;20.40;88.30
68681;DHT22;55836;49.858;6.756;2023-09-19T14:12:57;20.60;86.80
68681;DHT22;55836;49.858;6.756;2023-09-19T14:15:29;20.80;85.60
68681;DHT22;55836;49.858;6.756;2023-09-19T14:17:56;20.60;87.50
68681;DHT22;55836;49.858;6.756;2023-09-19T14:20:22;20.60;85.50
68681;DHT22;55836;49.858;6.756;2023-09-19T14:22:48;20.40;86.50
68681;DHT22;55836;49.858;6.756;2023-09-19T14:25:14;20.70;86.00
68681;DHT22;55836;49.858;6.756;2023-09-19T14:27:39;20.60;86.10
68681;DHT22;55836;49.858;6.756;2023-09-19T14:30:06;20.60;85.80
68681;DHT22;55836;49.858;6.756;2023-09-19T14:32:32;20.40;85.70
68681;DHT22;55836;49.858;6.756;2023-09-19T14:34:57;20.50;88.10
68681;DHT22;55836;49.858;6.756;2023-09-19T14:37:23;20.50;85.20
68681;DHT22;55836;49.858;6.756;2023-09-19T14:39:48;20.50;86.20
68681;DHT22;55836;49.858;6.756;2023-09-19T14:42:14;20.50;87.40
68681;DHT22;55836;49.858;6.756;2023-09-19T14:44:43;20.50;87.30
68681;DHT22;55836;49.858;6.756;2023-09-19T14:47:09;20.20;87.00
68681;DHT22;55836;49.858;6.756;2023-09-19T14:49:35;20.20;88.30
68681;DHT22;55836;49.858;6.756;2023-09-19T14:52:03;20.30;88.60
68681;DHT22;55836;49.858;6.756;2023-09-19T14:54:30;20.20;89.30
68681;DHT22;55836;49.858;6.756;2023-09-19T14:56:56;20.20;88.20
68681;DHT22;55836;49.858;6.756;2023-09-19T14:59:33;20.30;88.10
68681;DHT22;55836;49.858;6.756;2023-09-19T15:01:59;20.50;87.30
68681;DHT22;55836;49.858;6.756;2023-09-19T15:04:27;20.40;87.20
68681;DHT22;55836;49.858;6.756;2023-09-19T15:06:52;20.40;88.60
68681;DHT22;55836;49.858;6.756;2023-09-19T15:09:21;20.30;86.90
68681;DHT22;55836;49.858;6.756;2023-09-19T15:11:54;20.40;86.20
68681;DHT22;55836;49.858;6.756;2023-09-19T15:14:20;20.50;86.40
68681;DHT22;55836;49.858;6.756;2023-09-19T15:16:46;20.40;85.40
68681;DHT22;55836;49.858;6.756;2023-09-19T15:19:13;20.70;86.90
68681;DHT22;55836;49.858;6.756;2023-09-19T15:21:39;20.60;86.70
68681;DHT22;55836;49.858;6.756;2023-09-19T15:24:06;20.70;86.80
68681;DHT22;55836;49.858;6.756;2023-09-19T15:26:35;20.60;88.10
68681;DHT22;55836;49.858;6.756;2023-09-19T15:29:07;20.30;90.50
68681;DHT22;55836;49.858;6.756;2023-09-19T15:31:33;20.30;90.00
68681;DHT22;55836;49.858;6.756;2023-09-19T15:33:59;20.40;89.40
68681;DHT22;55836;49.858;6.756;2023-09-19T15:36:26;20.40;90.60
68681;DHT22;55836;49.858;6.756;2023-09-19T15:39:04;20.40;90.20
68681;DHT22;55836;49.858;6.756;2023-09-19T15:41:35;20.40;88.80
68681;DHT22;55836;49.858;6.756;2023-09-19T15:44:03;20.30;89.80
68681;DHT22;55836;49.858;6.756;2023-09-19T15:46:30;20.10;90.80
68681;DHT22;55836;49.858;6.756;2023-09-19T15:48:56;20.10;91.40
68681;DHT22;55836;49.858;6.756;2023-09-19T15:51:22;20.00;91.30
68681;DHT22;55836;49.858;6.756;2023-09-19T15:53:49;19.90;92.00
68681;DHT22;55836;49.858;6.756;2023-09-19T15:56:16;19.90;91.80
68681;DHT22;55836;49.858;6.756;2023-09-19T15:58:44;19.90;91.90
68681;DHT22;55836;49.858;6.756;2023-09-19T16:01:10;19.90;91.90
68681;DHT22;55836;49.858;6.756;2023-09-19T16:03:47;19.90;92.20
68681;DHT22;55836;49.858;6.756;2023-09-19T16:06:17;20.00;92.80
68681;DHT22;55836;49.858;6.756;2023-09-19T16:08:45;19.80;92.50
68681;DHT22;55836;49.858;6.756;2023-09-19T16:11:12;19.80;93.30
68681;DHT22;55836;49.858;6.756;2023-09-19T16:13:38;19.80;93.20
68681;DHT22;55836;49.858;6.756;2023-09-19T16:16:04;19.70;93.60
68681;DHT22;55836;49.858;6.756;2023-09-19T16:18:30;19.60;94.80
68681;DHT22;55836;49.858;6.756;2023-09-19T16:21:06;19.60;93.90
68681;DHT22;55836;49.858;6.756;2023-09-19T16:23:34;19.60;94.20
68681;DHT22;55836;49.858;6.756;2023-09-19T16:26:05;19.60;95.70
68681;DHT22;55836;49.858;6.756;2023-09-19T16:28:32;19.70;95.80
68681;DHT22;55836;49.858;6.756;2023-09-19T16:31:00;19.60;95.20
68681;DHT22;55836;49.858;6.756;2023-09-19T16:33:28;19.50;95.40
68681;DHT22;55836;49.858;6.756;2023-09-19T16:35:53;19.50;96.30